sensor_id;sensor_type;location;lat;lon;timestamp;P1;durP1;ratioP1;P2;durP2;ratioP2
77522;SDS011;66637;-29.628;-49.938;2023-06-10T00:00:29;41.47;;;10.63;;
77522;SDS011;66637;-29.628;-49.938;2023-06-10T00:03:01;42.35;;;10.05;;
77522;SDS011;66637;-29.628;-49.938;2023-06-10T00:05:37;49.47;;;11.10;;
77522;SDS011;66637;-29.628;-49.938;2023-06-10T00:08:08;64.07;;;11.68;;
77522;SDS011;66637;-29.628;-49.938;2023-06-10T00:10:40;51.63;;;11.35;;
77522;SDS011;66637;-29.628;-49.938;2023-06-10T00:13:11;61.60;;;13.80;;
77522;SDS011;66637;-29.628;-49.938;2023-06-10T00:15:49;58.08;;;13.02;;
77522;SDS011;66637;-29.628;-49.938;2023-06-10T00:18:23;56.80;;;12.15;;
77522;SDS011;66637;-29.628;-49.938;2023-06-10T00:20:58;44.83;;;11.43;;
77522;SDS011;66637;-29.628;-49.938;2023-06-10T00:23:37;55.75;;;11.10;;
77522;SDS011;66637;-29.628;-49.938;2023-06-10T00:26:09;49.70;;;11.80;;
77522;SDS011;66637;-29.628;-49.938;2023-06-10T00:28:45;56.35;;;10.95;;
77522;SDS011;66637;-29.628;-49.938;2023-06-10T00:31:17;65.32;;;12.15;;
77522;SDS011;66637;-29.628;-49.938;2023-06-10T00:33:47;94.97;;;14.73;;
77522;SDS011;66637;-29.628;-49.938;2023-06-10T00:36:19;91.10;;;13.40;;
77522;SDS011;66637;-29.628;-49.938;2023-06-10T00:38:54;65.95;;;10.60;;
77522;SDS011;66637;-29.628;-49.938;2023-06-10T00:41:27;69.97;;;11.00;;
77522;SDS011;66637;-29.628;-49.938;2023-06-10T00:44:01;69.45;;;12.32;;
77522;SDS011;66637;-29.628;-49.938;2023-06-10T00:46:33;54.40;;;11.18;;
77522;SDS011;66637;-29.628;-49.938;2023-06-10T00:49:04;54.10;;;10.52;;
77522;SDS011;66637;-29.628;-49.938;2023-06-10T00:51:37;52.30;;;9.95;;
77522;SDS011;66637;-29.628;-49.938;2023-06-10T00:54:13;36.05;;;10.45;;
77522;SDS011;66637;-29.628;-49.938;2023-06-10T00:56:47;30.85;;;10.40;;
77522;SDS011;66637;-29.628;-49.938;2023-06-10T00:59:21;26.13;;;9.05;;
77522;SDS011;66637;-29.628;-49.938;2023-06-10T01:01:52;21.52;;;9.48;;
77522;SDS011;66637;-29.628;-49.938;2023-06-10T01:04:23;19.88;;;8.05;;
77522;SDS011;66637;-29.628;-49.938;2023-06-10T01:06:57;8.45;;;5.43;;
77522;SDS011;66637;-29.628;-49.938;2023-06-10T01:09:51;18.73;;;5.18;;
77522;SDS011;66637;-29.628;-49.938;2023-06-10T01:12:40;14.20;;;9.27;;
77522;SDS011;66637;-29.628;-49.938;2023-06-10T01:15:24;11.77;;;6.43;;
77522;SDS011;66637;-29.628;-49.938;2023-06-10T01:17:57;8.02;;;4.10;;
77522;SDS011;66637;-29.628;-49.938;2023-06-10T01:20:44;5.10;;;3.20;;
77522;SDS011;66637;-29.628;-49.938;2023-06-10T01:23:20;6.32;;;3.00;;
77522;SDS011;66637;-29.628;-49.938;2023-06-10T01:28:31;5.13;;;2.80;;
77522;SDS011;66637;-29.628;-49.938;2023-06-10T01:31:16;7.28;;;2.70;;
77522;SDS011;66637;-29.628;-49.938;2023-06-10T01:33:54;4.55;;;2.60;;
77522;SDS011;66637;-29.628;-49.938;2023-06-10T01:36:25;6.38;;;2.70;;
77522;SDS011;66637;-29.628;-49.938;2023-06-10T01:38:57;6.93;;;2.50;;
77522;SDS011;66637;-29.628;-49.938;2023-06-10T01:41:32;5.15;;;2.40;;
77522;SDS011;66637;-29.628;-49.938;2023-06-10T01:44:05;5.90;;;2.60;;
77522;SDS011;66637;-29.628;-49.938;2023-06-10T01:46:36;4.57;;;2.70;;
77522;SDS011;66637;-29.628;-49.938;2023-06-10T01:49:06;3.30;;;2.20;;
77522;SDS011;66637;-29.628;-49.938;2023-06-10T01:51:43;4.97;;;2.35;;
77522;SDS011;66637;-29.628;-49.938;2023-06-10T01:54:15;2.95;;;2.47;;
77522;SDS011;66637;-29.628;-49.938;2023-06-10T01:56:46;7.47;;;2.70;;
77522;SDS011;66637;-29.628;-49.938;2023-06-10T01:59:18;8.50;;;3.17;;
77522;SDS011;66637;-29.628;-49.938;2023-06-10T02:01:48;4.00;;;2.33;;
77522;SDS011;66637;-29.628;-49.938;2023-06-10T02:04:18;5.55;;;2.80;;
77522;SDS011;66637;-29.628;-49.938;2023-06-10T02:06:51;6.10;;;2.28;;
77522;SDS011;66637;-29.628;-49.938;2023-06-10T02:09:25;3.95;;;2.58;;
77522;SDS011;66637;-29.628;-49.938;2023-06-10T02:11:58;8.45;;;3.20;;
77522;SDS011;66637;-29.628;-49.938;2023-06-10T02:14:32;6.70;;;2.53;;
77522;SDS011;66637;-29.628;-49.938;2023-06-10T02:17:04;6.43;;;2.45;;
77522;SDS011;66637;-29.628;-49.938;2023-06-10T02:19:36;5.95;;;2.25;;
77522;SDS011;66637;-29.628;-49.938;2023-06-10T02:22:14;7.03;;;2.63;;
77522;SDS011;66637;-29.628;-49.938;2023-06-10T02:24:48;3.80;;;2.50;;
77522;SDS011;66637;-29.628;-49.938;2023-06-10T02:27:20;7.03;;;2.42;;
77522;SDS011;66637;-29.628;-49.938;2023-06-10T02:29:56;4.43;;;2.53;;
77522;SDS011;66637;-29.628;-49.938;2023-06-10T02:32:29;5.03;;;2.58;;
77522;SDS011;66637;-29.628;-49.938;2023-06-10T02:35:02;5.40;;;2.40;;
77522;SDS011;66637;-29.628;-49.938;2023-06-10T02:37:34;10.50;;;2.85;;
77522;SDS011;66637;-29.628;-49.938;2023-06-10T02:40:06;4.15;;;2.70;;
77522;SDS011;66637;-29.628;-49.938;2023-06-10T02:42:38;4.95;;;2.35;;
77522;SDS011;66637;-29.628;-49.938;2023-06-10T02:45:12;8.07;;;2.72;;
77522;SDS011;66637;-29.628;-49.938;2023-06-10T02:47:43;6.10;;;2.40;;
77522;SDS011;66637;-29.628;-49.938;2023-06-10T02:50:16;6.88;;;2.20;;
77522;SDS011;66637;-29.628;-49.938;2023-06-10T02:53:03;4.43;;;2.00;;
77522;SDS011;66637;-29.628;-49.938;2023-06-10T02:55:37;4.05;;;2.30;;
77522;SDS011;66637;-29.628;-49.938;2023-06-10T02:58:15;8.60;;;2.70;;
77522;SDS011;66637;-29.628;-49.938;2023-06-10T03:00:49;4.18;;;1.95;;
77522;SDS011;66637;-29.628;-49.938;2023-06-10T03:03:24;3.95;;;2.30;;
77522;SDS011;66637;-29.628;-49.938;2023-06-10T03:06:02;6.18;;;2.30;;
77522;SDS011;66637;-29.628;-49.938;2023-06-10T03:08:34;5.63;;;2.28;;
77522;SDS011;66637;-29.628;-49.938;2023-06-10T03:11:09;8.55;;;2.47;;
77522;SDS011;66637;-29.628;-49.938;2023-06-10T03:13:41;5.68;;;2.35;;
77522;SDS011;66637;-29.628;-49.938;2023-06-10T03:16:26;5.00;;;2.25;;
77522;SDS011;66637;-29.628;-49.938;2023-06-10T03:18:59;8.13;;;2.70;;
77522;SDS011;66637;-29.628;-49.938;2023-06-10T03:21:31;7.72;;;2.50;;
77522;SDS011;66637;-29.628;-49.938;2023-06-10T03:24:04;8.05;;;2.40;;
77522;SDS011;66637;-29.628;-49.938;2023-06-10T03:26:36;8.30;;;2.85;;
77522;SDS011;66637;-29.628;-49.938;2023-06-10T03:29:07;5.57;;;2.40;;
77522;SDS011;66637;-29.628;-49.938;2023-06-10T03:31:38;6.28;;;2.50;;
77522;SDS011;66637;-29.628;-49.938;2023-06-10T03:34:10;6.13;;;2.40;;
77522;SDS011;66637;-29.628;-49.938;2023-06-10T03:36:42;7.03;;;2.58;;
77522;SDS011;66637;-29.628;-49.938;2023-06-10T03:39:14;3.03;;;2.20;;
77522;SDS011;66637;-29.628;-49.938;2023-06-10T03:41:48;4.63;;;2.00;;
77522;SDS011;66637;-29.628;-49.938;2023-06-10T03:44:19;4.13;;;2.65;;
77522;SDS011;66637;-29.628;-49.938;2023-06-10T03:46:50;6.82;;;2.05;;
77522;SDS011;66637;-29.628;-49.938;2023-06-10T03:49:22;6.90;;;2.40;;
77522;SDS011;66637;-29.628;-49.938;2023-06-10T03:51:58;5.88;;;2.58;;
77522;SDS011;66637;-29.628;-49.938;2023-06-10T03:54:29;6.10;;;2.28;;
77522;SDS011;66637;-29.628;-49.938;2023-06-10T03:57:00;6.85;;;2.13;;
77522;SDS011;66637;-29.628;-49.938;2023-06-10T03:59:32;4.32;;;2.28;;
77522;SDS011;66637;-29.628;-49.938;2023-06-10T04:02:03;4.13;;;2.40;;
77522;SDS011;66637;-29.628;-49.938;2023-06-10T04:04:35;3.85;;;2.53;;
77522;SDS011;66637;-29.628;-49.938;2023-06-10T04:07:07;4.63;;;2.25;;
77522;SDS011;66637;-29.628;-49.938;2023-06-10T04:09:39;3.05;;;2.03;;
77522;SDS011;66637;-29.628;-49.938;2023-06-10T04:12:10;4.18;;;2.40;;
77522;SDS011;66637;-29.628;-49.938;2023-06-10T04:14:40;7.47;;;2.60;;
77522;SDS011;66637;-29.628;-49.938;2023-06-10T04:17:12;2.92;;;2.15;;
77522;SDS011;66637;-29.628;-49.938;2023-06-10T04:19:43;6.55;;;2.45;;
77522;SDS011;66637;-29.628;-49.938;2023-06-10T04:22:14;7.72;;;2.47;;
77522;SDS011;66637;-29.628;-49.938;2023-06-10T04:24:44;2.92;;;2.00;;
77522;SDS011;66637;-29.628;-49.938;2023-06-10T04:27:17;6.07;;;2.42;;
77522;SDS011;66637;-29.628;-49.938;2023-06-10T04:29:48;5.85;;;2.38;;
77522;SDS011;66637;-29.628;-49.938;2023-06-10T04:32:19;3.08;;;2.40;;
77522;SDS011;66637;-29.628;-49.938;2023-06-10T04:34:49;3.45;;;2.30;;
77522;SDS011;66637;-29.628;-49.938;2023-06-10T04:37:20;5.22;;;2.60;;
77522;SDS011;66637;-29.628;-49.938;2023-06-10T04:39:50;7.22;;;2.65;;
77522;SDS011;66637;-29.628;-49.938;2023-06-10T04:42:20;5.40;;;2.40;;
77522;SDS011;66637;-29.628;-49.938;2023-06-10T04:44:51;6.97;;;2.20;;
77522;SDS011;66637;-29.628;-49.938;2023-06-10T04:47:21;5.20;;;2.30;;
77522;SDS011;66637;-29.628;-49.938;2023-06-10T04:49:52;3.78;;;2.35;;
77522;SDS011;66637;-29.628;-49.938;2023-06-10T04:52:24;7.50;;;2.55;;
77522;SDS011;66637;-29.628;-49.938;2023-06-10T04:54:57;7.85;;;2.45;;
77522;SDS011;66637;-29.628;-49.938;2023-06-10T04:57:28;6.32;;;2.53;;
77522;SDS011;66637;-29.628;-49.938;2023-06-10T04:59:59;5.95;;;2.50;;
77522;SDS011;66637;-29.628;-49.938;2023-06-10T05:02:30;4.88;;;2.33;;
77522;SDS011;66637;-29.628;-49.938;2023-06-10T05:05:01;4.50;;;2.60;;
77522;SDS011;66637;-29.628;-49.938;2023-06-10T05:07:32;9.70;;;2.70;;
77522;SDS011;66637;-29.628;-49.938;2023-06-10T05:10:03;4.78;;;2.30;;
77522;SDS011;66637;-29.628;-49.938;2023-06-10T05:12:34;4.15;;;2.40;;
77522;SDS011;66637;-29.628;-49.938;2023-06-10T05:15:05;4.55;;;2.25;;
77522;SDS011;66637;-29.628;-49.938;2023-06-10T05:17:37;3.53;;;2.30;;
77522;SDS011;66637;-29.628;-49.938;2023-06-10T05:20:08;6.85;;;2.60;;
77522;SDS011;66637;-29.628;-49.938;2023-06-10T05:22:39;4.95;;;2.30;;
77522;SDS011;66637;-29.628;-49.938;2023-06-10T05:25:11;6.60;;;2.50;;
77522;SDS011;66637;-29.628;-49.938;2023-06-10T05:27:45;4.50;;;2.13;;
77522;SDS011;66637;-29.628;-49.938;2023-06-10T05:30:17;7.32;;;2.70;;
77522;SDS011;66637;-29.628;-49.938;2023-06-10T05:32:48;5.07;;;2.78;;
77522;SDS011;66637;-29.628;-49.938;2023-06-10T05:35:21;4.20;;;2.67;;
77522;SDS011;66637;-29.628;-49.938;2023-06-10T05:37:51;5.20;;;2.40;;
77522;SDS011;66637;-29.628;-49.938;2023-06-10T05:40:22;6.78;;;2.40;;
77522;SDS011;66637;-29.628;-49.938;2023-06-10T05:42:53;7.35;;;2.67;;
77522;SDS011;66637;-29.628;-49.938;2023-06-10T05:45:24;3.92;;;2.45;;
77522;SDS011;66637;-29.628;-49.938;2023-06-10T05:47:56;3.83;;;2.50;;
77522;SDS011;66637;-29.628;-49.938;2023-06-10T05:50:29;7.00;;;2.45;;
77522;SDS011;66637;-29.628;-49.938;2023-06-10T05:53:00;6.97;;;2.80;;
77522;SDS011;66637;-29.628;-49.938;2023-06-10T05:55:30;3.88;;;2.40;;
77522;SDS011;66637;-29.628;-49.938;2023-06-10T05:58:01;6.43;;;2.67;;
77522;SDS011;66637;-29.628;-49.938;2023-06-10T06:00:58;6.75;;;2.72;;
77522;SDS011;66637;-29.628;-49.938;2023-06-10T06:03:29;5.55;;;2.85;;
77522;SDS011;66637;-29.628;-49.938;2023-06-10T06:06:02;4.88;;;2.33;;
77522;SDS011;66637;-29.628;-49.938;2023-06-10T06:08:33;5.28;;;2.35;;
77522;SDS011;66637;-29.628;-49.938;2023-06-10T06:11:04;4.70;;;2.63;;
77522;SDS011;66637;-29.628;-49.938;2023-06-10T06:13:34;7.85;;;2.88;;
77522;SDS011;66637;-29.628;-49.938;2023-06-10T06:16:04;5.82;;;2.90;;
77522;SDS011;66637;-29.628;-49.938;2023-06-10T06:18:36;5.72;;;2.80;;
77522;SDS011;66637;-29.628;-49.938;2023-06-10T06:21:07;4.55;;;2.80;;
77522;SDS011;66637;-29.628;-49.938;2023-06-10T06:23:37;7.82;;;2.50;;
77522;SDS011;66637;-29.628;-49.938;2023-06-10T06:26:07;4.75;;;1.90;;
77522;SDS011;66637;-29.628;-49.938;2023-06-10T06:28:37;4.18;;;2.30;;
77522;SDS011;66637;-29.628;-49.938;2023-06-10T06:31:08;4.50;;;2.17;;
77522;SDS011;66637;-29.628;-49.938;2023-06-10T06:33:39;4.95;;;2.45;;
77522;SDS011;66637;-29.628;-49.938;2023-06-10T06:36:10;6.38;;;2.83;;
77522;SDS011;66637;-29.628;-49.938;2023-06-10T06:38:40;3.70;;;2.40;;
77522;SDS011;66637;-29.628;-49.938;2023-06-10T06:41:12;7.22;;;2.90;;
77522;SDS011;66637;-29.628;-49.938;2023-06-10T06:43:42;5.55;;;2.35;;
77522;SDS011;66637;-29.628;-49.938;2023-06-10T06:46:23;5.10;;;2.30;;
77522;SDS011;66637;-29.628;-49.938;2023-06-10T06:48:53;4.63;;;2.58;;
77522;SDS011;66637;-29.628;-49.938;2023-06-10T06:51:25;4.80;;;2.03;;
77522;SDS011;66637;-29.628;-49.938;2023-06-10T06:53:56;6.07;;;2.40;;
77522;SDS011;66637;-29.628;-49.938;2023-06-10T06:56:29;6.68;;;2.47;;
77522;SDS011;66637;-29.628;-49.938;2023-06-10T06:58:59;6.40;;;2.40;;
77522;SDS011;66637;-29.628;-49.938;2023-06-10T07:01:29;6.88;;;2.20;;
77522;SDS011;66637;-29.628;-49.938;2023-06-10T07:03:59;4.63;;;2.17;;
77522;SDS011;66637;-29.628;-49.938;2023-06-10T07:06:31;7.18;;;2.10;;
77522;SDS011;66637;-29.628;-49.938;2023-06-10T07:09:05;4.75;;;2.28;;
77522;SDS011;66637;-29.628;-49.938;2023-06-10T07:11:36;4.72;;;2.20;;
77522;SDS011;66637;-29.628;-49.938;2023-06-10T07:14:07;5.68;;;2.28;;
77522;SDS011;66637;-29.628;-49.938;2023-06-10T07:16:39;4.78;;;2.35;;
77522;SDS011;66637;-29.628;-49.938;2023-06-10T07:19:09;4.47;;;2.40;;
77522;SDS011;66637;-29.628;-49.938;2023-06-10T07:21:39;2.75;;;1.90;;
77522;SDS011;66637;-29.628;-49.938;2023-06-10T07:24:09;4.65;;;2.08;;
77522;SDS011;66637;-29.628;-49.938;2023-06-10T07:26:41;3.97;;;1.88;;
77522;SDS011;66637;-29.628;-49.938;2023-06-10T07:29:12;5.15;;;2.30;;
77522;SDS011;66637;-29.628;-49.938;2023-06-10T07:31:42;6.80;;;2.20;;
77522;SDS011;66637;-29.628;-49.938;2023-06-10T07:34:14;4.63;;;2.20;;
77522;SDS011;66637;-29.628;-49.938;2023-06-10T07:36:44;5.75;;;2.42;;
77522;SDS011;66637;-29.628;-49.938;2023-06-10T07:39:15;4.63;;;1.83;;
77522;SDS011;66637;-29.628;-49.938;2023-06-10T07:41:47;5.20;;;2.33;;
77522;SDS011;66637;-29.628;-49.938;2023-06-10T07:44:19;4.40;;;2.38;;
77522;SDS011;66637;-29.628;-49.938;2023-06-10T07:46:50;2.92;;;2.22;;
77522;SDS011;66637;-29.628;-49.938;2023-06-10T07:49:22;3.05;;;2.38;;
77522;SDS011;66637;-29.628;-49.938;2023-06-10T07:51:56;4.97;;;2.20;;
77522;SDS011;66637;-29.628;-49.938;2023-06-10T07:54:28;4.45;;;2.45;;
77522;SDS011;66637;-29.628;-49.938;2023-06-10T07:56:58;5.45;;;2.65;;
77522;SDS011;66637;-29.628;-49.938;2023-06-10T07:59:28;4.78;;;2.33;;
77522;SDS011;66637;-29.628;-49.938;2023-06-10T08:01:59;5.93;;;2.50;;
77522;SDS011;66637;-29.628;-49.938;2023-06-10T08:04:31;4.13;;;2.40;;
77522;SDS011;66637;-29.628;-49.938;2023-06-10T08:07:02;3.88;;;2.00;;
77522;SDS011;66637;-29.628;-49.938;2023-06-10T08:09:32;5.28;;;2.35;;
77522;SDS011;66637;-29.628;-49.938;2023-06-10T08:12:04;6.65;;;2.78;;
77522;SDS011;66637;-29.628;-49.938;2023-06-10T08:14:39;5.97;;;2.50;;
77522;SDS011;66637;-29.628;-49.938;2023-06-10T08:17:10;7.22;;;2.70;;
77522;SDS011;66637;-29.628;-49.938;2023-06-10T08:19:41;5.43;;;2.45;;
77522;SDS011;66637;-29.628;-49.938;2023-06-10T08:22:11;3.35;;;2.30;;
77522;SDS011;66637;-29.628;-49.938;2023-06-10T08:24:42;6.05;;;2.53;;
77522;SDS011;66637;-29.628;-49.938;2023-06-10T08:27:16;4.35;;;2.15;;
77522;SDS011;66637;-29.628;-49.938;2023-06-10T08:29:47;6.32;;;2.30;;
77522;SDS011;66637;-29.628;-49.938;2023-06-10T08:32:18;3.80;;;2.40;;
77522;SDS011;66637;-29.628;-49.938;2023-06-10T08:34:48;4.47;;;2.15;;
77522;SDS011;66637;-29.628;-49.938;2023-06-10T08:37:19;5.07;;;2.28;;
77522;SDS011;66637;-29.628;-49.938;2023-06-10T08:39:50;4.90;;;2.15;;
77522;SDS011;66637;-29.628;-49.938;2023-06-10T08:42:23;4.47;;;2.47;;
77522;SDS011;66637;-29.628;-49.938;2023-06-10T08:44:59;4.38;;;2.20;;
77522;SDS011;66637;-29.628;-49.938;2023-06-10T08:47:31;6.40;;;2.30;;
77522;SDS011;66637;-29.628;-49.938;2023-06-10T08:50:06;4.75;;;2.30;;
77522;SDS011;66637;-29.628;-49.938;2023-06-10T08:52:44;5.00;;;2.10;;
77522;SDS011;66637;-29.628;-49.938;2023-06-10T08:55:25;3.60;;;1.75;;
77522;SDS011;66637;-29.628;-49.938;2023-06-10T08:58:00;4.00;;;2.50;;
77522;SDS011;66637;-29.628;-49.938;2023-06-10T09:00:31;3.85;;;1.98;;
77522;SDS011;66637;-29.628;-49.938;2023-06-10T09:03:02;4.35;;;2.08;;
77522;SDS011;66637;-29.628;-49.938;2023-06-10T09:05:34;3.05;;;1.98;;
77522;SDS011;66637;-29.628;-49.938;2023-06-10T09:08:08;4.85;;;1.80;;
77522;SDS011;66637;-29.628;-49.938;2023-06-10T09:10:40;4.78;;;1.70;;
77522;SDS011;66637;-29.628;-49.938;2023-06-10T09:13:11;5.13;;;1.40;;
77522;SDS011;66637;-29.628;-49.938;2023-06-10T09:15:44;2.50;;;1.80;;
77522;SDS011;66637;-29.628;-49.938;2023-06-10T09:18:16;4.10;;;1.85;;
77522;SDS011;66637;-29.628;-49.938;2023-06-10T09:20:46;2.05;;;1.70;;
77522;SDS011;66637;-29.628;-49.938;2023-06-10T09:23:17;3.72;;;1.88;;
77522;SDS011;66637;-29.628;-49.938;2023-06-10T09:25:53;7.80;;;2.08;;
77522;SDS011;66637;-29.628;-49.938;2023-06-10T09:28:27;4.57;;;1.85;;
77522;SDS011;66637;-29.628;-49.938;2023-06-10T09:31:03;4.00;;;2.00;;
77522;SDS011;66637;-29.628;-49.938;2023-06-10T09:33:39;3.35;;;1.60;;
77522;SDS011;66637;-29.628;-49.938;2023-06-10T09:36:09;4.82;;;1.75;;
77522;SDS011;66637;-29.628;-49.938;2023-06-10T09:38:40;7.63;;;2.50;;
77522;SDS011;66637;-29.628;-49.938;2023-06-10T09:41:11;3.75;;;2.13;;
77522;SDS011;66637;-29.628;-49.938;2023-06-10T09:43:45;5.35;;;2.30;;
77522;SDS011;66637;-29.628;-49.938;2023-06-10T09:46:18;5.25;;;2.35;;
77522;SDS011;66637;-29.628;-49.938;2023-06-10T09:48:50;3.50;;;2.30;;
77522;SDS011;66637;-29.628;-49.938;2023-06-10T09:51:20;6.80;;;2.47;;
77522;SDS011;66637;-29.628;-49.938;2023-06-10T09:53:53;4.72;;;2.40;;
77522;SDS011;66637;-29.628;-49.938;2023-06-10T09:56:34;5.68;;;2.60;;
77522;SDS011;66637;-29.628;-49.938;2023-06-10T09:59:06;5.35;;;2.90;;
77522;SDS011;66637;-29.628;-49.938;2023-06-10T10:01:38;6.15;;;3.00;;
77522;SDS011;66637;-29.628;-49.938;2023-06-10T10:04:09;8.27;;;2.88;;
77522;SDS011;66637;-29.628;-49.938;2023-06-10T10:06:40;6.75;;;2.63;;
77522;SDS011;66637;-29.628;-49.938;2023-06-10T10:09:11;10.30;;;3.10;;
77522;SDS011;66637;-29.628;-49.938;2023-06-10T10:11:43;6.47;;;2.92;;
77522;SDS011;66637;-29.628;-49.938;2023-06-10T10:14:14;6.50;;;2.97;;
77522;SDS011;66637;-29.628;-49.938;2023-06-10T10:16:49;6.15;;;3.20;;
77522;SDS011;66637;-29.628;-49.938;2023-06-10T10:19:25;11.02;;;3.00;;
77522;SDS011;66637;-29.628;-49.938;2023-06-10T10:25:16;6.22;;;2.47;;
77522;SDS011;66637;-29.628;-49.938;2023-06-10T10:28:34;4.65;;;2.90;;
77522;SDS011;66637;-29.628;-49.938;2023-06-10T10:30:45;8.13;;;2.90;;
77522;SDS011;66637;-29.628;-49.938;2023-06-10T10:33:22;7.57;;;3.00;;
77522;SDS011;66637;-29.628;-49.938;2023-06-10T10:36:06;9.60;;;3.35;;
77522;SDS011;66637;-29.628;-49.938;2023-06-10T10:38:37;7.93;;;3.20;;
77522;SDS011;66637;-29.628;-49.938;2023-06-10T10:41:09;9.07;;;3.60;;
77522;SDS011;66637;-29.628;-49.938;2023-06-10T10:43:41;7.20;;;3.17;;
77522;SDS011;66637;-29.628;-49.938;2023-06-10T10:46:16;7.22;;;3.03;;
77522;SDS011;66637;-29.628;-49.938;2023-06-10T10:48:52;10.82;;;3.30;;
77522;SDS011;66637;-29.628;-49.938;2023-06-10T10:51:27;21.73;;;4.47;;
77522;SDS011;66637;-29.628;-49.938;2023-06-10T10:54:14;14.60;;;4.18;;
77522;SDS011;66637;-29.628;-49.938;2023-06-10T11:05:43;5.90;;;3.00;;
77522;SDS011;66637;-29.628;-49.938;2023-06-10T11:11:01;4.97;;;2.67;;
77522;SDS011;66637;-29.628;-49.938;2023-06-10T11:16:41;6.30;;;3.00;;
77522;SDS011;66637;-29.628;-49.938;2023-06-10T11:19:35;5.65;;;2.70;;
77522;SDS011;66637;-29.628;-49.938;2023-06-10T11:22:08;7.80;;;2.75;;
77522;SDS011;66637;-29.628;-49.938;2023-06-10T11:24:38;6.80;;;3.10;;
77522;SDS011;66637;-29.628;-49.938;2023-06-10T11:29:58;5.63;;;2.70;;
77522;SDS011;66637;-29.628;-49.938;2023-06-10T11:32:30;8.18;;;2.97;;
77522;SDS011;66637;-29.628;-49.938;2023-06-10T11:35:03;5.78;;;2.92;;
77522;SDS011;66637;-29.628;-49.938;2023-06-10T11:37:36;8.40;;;2.95;;
77522;SDS011;66637;-29.628;-49.938;2023-06-10T11:40:07;7.38;;;3.00;;
77522;SDS011;66637;-29.628;-49.938;2023-06-10T11:42:42;6.72;;;2.80;;
77522;SDS011;66637;-29.628;-49.938;2023-06-10T11:45:16;5.97;;;2.80;;
77522;SDS011;66637;-29.628;-49.938;2023-06-10T11:47:57;4.65;;;2.70;;
77522;SDS011;66637;-29.628;-49.938;2023-06-10T11:50:30;9.50;;;3.08;;
77522;SDS011;66637;-29.628;-49.938;2023-06-10T11:53:03;10.50;;;2.92;;
77522;SDS011;66637;-29.628;-49.938;2023-06-10T11:55:44;4.85;;;3.05;;
77522;SDS011;66637;-29.628;-49.938;2023-06-10T11:58:20;5.38;;;3.35;;
77522;SDS011;66637;-29.628;-49.938;2023-06-10T12:03:26;4.07;;;2.35;;
77522;SDS011;66637;-29.628;-49.938;2023-06-10T12:06:06;6.10;;;2.13;;
77522;SDS011;66637;-29.628;-49.938;2023-06-10T12:08:41;4.55;;;2.00;;
77522;SDS011;66637;-29.628;-49.938;2023-06-10T12:11:16;4.38;;;2.28;;
77522;SDS011;66637;-29.628;-49.938;2023-06-10T12:13:48;2.15;;;1.90;;
77522;SDS011;66637;-29.628;-49.938;2023-06-10T12:16:21;3.55;;;1.83;;
77522;SDS011;66637;-29.628;-49.938;2023-06-10T12:19:00;5.18;;;2.10;;
77522;SDS011;66637;-29.628;-49.938;2023-06-10T12:21:36;5.80;;;1.80;;
77522;SDS011;66637;-29.628;-49.938;2023-06-10T12:24:09;3.17;;;2.20;;
77522;SDS011;66637;-29.628;-49.938;2023-06-10T12:26:44;3.17;;;1.90;;
77522;SDS011;66637;-29.628;-49.938;2023-06-10T12:29:15;4.72;;;2.15;;
77522;SDS011;66637;-29.628;-49.938;2023-06-10T12:32:01;2.97;;;2.13;;
77522;SDS011;66637;-29.628;-49.938;2023-06-10T12:34:38;3.42;;;2.05;;
77522;SDS011;66637;-29.628;-49.938;2023-06-10T12:37:11;5.15;;;1.85;;
77522;SDS011;66637;-29.628;-49.938;2023-06-10T12:39:43;5.35;;;2.15;;
77522;SDS011;66637;-29.628;-49.938;2023-06-10T12:42:27;4.85;;;2.60;;
77522;SDS011;66637;-29.628;-49.938;2023-06-10T12:44:59;5.47;;;2.17;;
77522;SDS011;66637;-29.628;-49.938;2023-06-10T12:47:33;5.07;;;2.58;;
77522;SDS011;66637;-29.628;-49.938;2023-06-10T12:50:05;3.47;;;2.35;;
77522;SDS011;66637;-29.628;-49.938;2023-06-10T12:52:37;3.53;;;2.20;;
77522;SDS011;66637;-29.628;-49.938;2023-06-10T12:55:08;2.95;;;1.90;;
77522;SDS011;66637;-29.628;-49.938;2023-06-10T12:57:50;2.80;;;1.90;;
77522;SDS011;66637;-29.628;-49.938;2023-06-10T13:00:22;6.13;;;1.70;;
77522;SDS011;66637;-29.628;-49.938;2023-06-10T13:03:00;2.90;;;2.00;;
77522;SDS011;66637;-29.628;-49.938;2023-06-10T13:05:34;4.78;;;2.90;;
77522;SDS011;66637;-29.628;-49.938;2023-06-10T13:08:15;3.90;;;2.00;;
77522;SDS011;66637;-29.628;-49.938;2023-06-10T13:10:48;8.70;;;2.25;;
77522;SDS011;66637;-29.628;-49.938;2023-06-10T13:13:19;3.63;;;2.10;;
77522;SDS011;66637;-29.628;-49.938;2023-06-10T13:15:50;8.38;;;3.00;;
77522;SDS011;66637;-29.628;-49.938;2023-06-10T13:18:22;9.50;;;3.60;;
77522;SDS011;66637;-29.628;-49.938;2023-06-10T13:20:53;6.95;;;2.90;;
77522;SDS011;66637;-29.628;-49.938;2023-06-10T13:23:26;8.80;;;2.85;;
77522;SDS011;66637;-29.628;-49.938;2023-06-10T13:25:59;12.05;;;3.47;;
77522;SDS011;66637;-29.628;-49.938;2023-06-10T13:28:31;6.15;;;2.78;;
77522;SDS011;66637;-29.628;-49.938;2023-06-10T13:31:03;15.63;;;3.78;;
77522;SDS011;66637;-29.628;-49.938;2023-06-10T13:33:34;8.70;;;3.45;;
77522;SDS011;66637;-29.628;-49.938;2023-06-10T13:36:08;9.85;;;3.20;;
77522;SDS011;66637;-29.628;-49.938;2023-06-10T13:38:40;5.90;;;2.83;;
77522;SDS011;66637;-29.628;-49.938;2023-06-10T13:41:13;6.78;;;2.08;;
77522;SDS011;66637;-29.628;-49.938;2023-06-10T13:43:44;3.40;;;1.90;;
77522;SDS011;66637;-29.628;-49.938;2023-06-10T13:46:15;2.53;;;1.70;;
77522;SDS011;66637;-29.628;-49.938;2023-06-10T13:48:45;2.92;;;1.60;;
77522;SDS011;66637;-29.628;-49.938;2023-06-10T13:51:18;5.47;;;1.75;;
77522;SDS011;66637;-29.628;-49.938;2023-06-10T13:53:50;3.55;;;1.88;;
77522;SDS011;66637;-29.628;-49.938;2023-06-10T13:56:21;3.00;;;1.58;;
77522;SDS011;66637;-29.628;-49.938;2023-06-10T13:58:53;6.72;;;1.60;;
77522;SDS011;66637;-29.628;-49.938;2023-06-10T14:01:24;2.70;;;1.65;;
77522;SDS011;66637;-29.628;-49.938;2023-06-10T14:03:55;3.13;;;1.50;;
77522;SDS011;66637;-29.628;-49.938;2023-06-10T14:06:27;3.35;;;1.48;;
77522;SDS011;66637;-29.628;-49.938;2023-06-10T14:08:57;2.63;;;1.70;;
77522;SDS011;66637;-29.628;-49.938;2023-06-10T14:11:28;3.50;;;1.70;;
77522;SDS011;66637;-29.628;-49.938;2023-06-10T14:14:03;3.03;;;1.70;;
77522;SDS011;66637;-29.628;-49.938;2023-06-10T14:16:34;2.88;;;1.40;;
77522;SDS011;66637;-29.628;-49.938;2023-06-10T14:19:09;2.67;;;1.13;;
77522;SDS011;66637;-29.628;-49.938;2023-06-10T14:21:40;2.75;;;1.10;;
77522;SDS011;66637;-29.628;-49.938;2023-06-10T14:24:11;4.28;;;1.55;;
77522;SDS011;66637;-29.628;-49.938;2023-06-10T14:26:43;2.15;;;1.40;;
77522;SDS011;66637;-29.628;-49.938;2023-06-10T14:29:15;4.25;;;1.30;;
77522;SDS011;66637;-29.628;-49.938;2023-06-10T14:31:49;4.93;;;2.10;;
77522;SDS011;66637;-29.628;-49.938;2023-06-10T14:34:19;7.30;;;3.00;;
77522;SDS011;66637;-29.628;-49.938;2023-06-10T14:36:54;6.93;;;2.50;;
77522;SDS011;66637;-29.628;-49.938;2023-06-10T14:39:26;14.45;;;3.45;;
77522;SDS011;66637;-29.628;-49.938;2023-06-10T14:41:57;12.82;;;3.60;;
77522;SDS011;66637;-29.628;-49.938;2023-06-10T14:44:30;17.92;;;3.58;;
77522;SDS011;66637;-29.628;-49.938;2023-06-10T14:47:02;14.82;;;3.30;;
77522;SDS011;66637;-29.628;-49.938;2023-06-10T14:49:34;8.40;;;3.15;;
77522;SDS011;66637;-29.628;-49.938;2023-06-10T14:52:05;10.23;;;3.03;;
77522;SDS011;66637;-29.628;-49.938;2023-06-10T14:54:36;8.52;;;2.50;;
77522;SDS011;66637;-29.628;-49.938;2023-06-10T14:57:09;9.38;;;3.20;;
77522;SDS011;66637;-29.628;-49.938;2023-06-10T14:59:39;14.90;;;3.85;;
77522;SDS011;66637;-29.628;-49.938;2023-06-10T15:02:10;16.05;;;4.95;;
77522;SDS011;66637;-29.628;-49.938;2023-06-10T15:04:40;22.88;;;4.45;;